LEVD/VLL METAR and TAF weather

Enter ICAO airport designator
Station Type Date Time Source
LEVD METAR 2022/06/28 23:30 UTC NOAA

LEVD 282330Z AUTO 34006KT CAVOK 15/04 Q1019


Station Type Date Time Source
LEVD Decoded METAR 2022/06/28 23:30 UTC NOAA

Valladolid / Villanubla, Spain (LEVD) 41-43N 004-51W 846M
Jun 28, 2022 - 07:30 PM EDT / 2022.06.28 2330 UTC
Wind: from the NNW (340 degrees) at 7 MPH (6 KT):0
Visibility: greater than 7 mile(s):0
Temperature: 59 F (15 C)
Dew Point: 39 F (4 C)
Relative Humidity: 47%
Pressure (altimeter): 30.09 in. Hg (1019 hPa)
ob: LEVD 282330Z AUTO 34006KT CAVOK 15/04 Q1019
cycle: 23

Station Type Date Time Source
LEVD TAF 2022/06/28 21:27 UTC NOAA

TAF LEVD 282000Z 2821/2921 34009KT CAVOK TX26/2915Z TN08/2905Z
BECMG 2900/2902 02005KT
BECMG 2910/2911 25010KT
BECMG 2919/2920 02013KT

Example: see airport list